Time;durP1;ratioP1;P1;durP2;ratioP2;P2;SDS_P1;SDS_P2;PMS_P1;PMS_P2;Temp;Humidity;BMP_temperature;BMP_pressure;BME280_temperature;BME280_humidity;BME280_pressure;Samples;Min_cycle;Max_cycle;Signal;HPM_P1;HPM_P2
2021/12/17 00:05:04;;;;;;;16.60;11.55;;;128.90;2252.80;;;;;;6188643;23;20008;-89
2021/12/17 00:07:35;;;;;;;22.30;12.00;;;128.80;2252.80;;;;;;6188615;23;20299;-89
2021/12/17 00:10:03;;;;;;;16.83;11.85;;;128.70;2252.80;;;;;;6162560;23;20037;-88
2021/12/17 00:12:29;;;;;;;22.40;16.98;;;128.70;2252.80;;;;;;6162159;23;20088;-89
2021/12/17 00:14:57;;;;;;;20.42;12.75;;;128.80;2252.80;;;;;;6162199;23;19997;-90
2021/12/17 00:17:29;;;;;;;24.30;14.07;;;128.90;2252.80;;;;;;6162239;23;20080;-89
2021/12/17 00:20:32;;;;;;;16.70;11.70;;;128.70;2252.80;;;;;;6161916;23;20005;-89
2021/12/17 00:52:29;;;;;;;20.00;12.20;;;128.80;2252.80;;;;;;6198237;23;20047;-89
2021/12/17 00:54:54;;;;;;;26.77;14.77;;;128.80;2252.80;;;;;;6161444;23;20040;-88
2021/12/17 00:57:24;;;;;;;15.82;9.48;;;128.80;2252.80;;;;;;6161782;23;20004;-89
2021/12/17 00:59:53;;;;;;;12.57;7.75;;;128.80;2252.80;;;;;;6161911;23;20010;-88
2021/12/17 01:02:23;;;;;;;13.57;9.35;;;128.80;2252.80;;;;;;6162067;23;20407;-89
2021/12/17 01:04:52;;;;;;;11.82;7.78;;;128.80;2252.80;;;;;;6161862;23;20088;-88
2021/12/17 01:07:21;;;;;;;13.88;8.63;;;128.80;2252.80;;;;;;6162088;23;20011;-89
2021/12/17 01:09:47;;;;;;;11.35;7.13;;;128.80;2252.80;;;;;;6161685;23;20091;-89
2021/12/17 01:12:14;;;;;;;12.68;7.60;;;128.80;2252.80;;;;;;6161924;23;20016;-89
2021/12/17 01:14:40;;;;;;;13.38;7.28;;;128.20;2252.80;;;;;;6161611;23;20414;-89
2021/12/17 01:17:08;;;;;;;12.80;7.43;;;153.70;2252.80;;;;;;6161540;23;20083;-89
2021/12/17 01:22:49;;;;;;;14.57;8.55;;;128.80;2252.80;;;;;;6198015;23;20299;-89
2021/12/17 01:25:07;;;;;;;7.78;4.82;;;128.90;2252.80;;;;;;6186720;23;20001;-90
2021/12/17 01:35:47;;;;;;;14.32;8.38;;;128.80;2252.80;;;;;;6187667;23;20008;-89
2021/12/17 01:43:51;;;;;;;11.77;6.95;;;128.70;2252.80;;;;;;6187656;23;20079;-90
2021/12/17 01:46:22;;;;;;;21.23;15.45;;;128.60;2252.80;;;;;;6161691;23;20377;-90
2021/12/17 02:00:12;;;;;;;9.63;6.15;;;128.50;2252.80;;;;;;6187712;23;20005;-90
2021/12/17 02:02:44;;;;;;;10.18;6.10;;;128.40;2252.80;;;;;;6161762;23;19997;-90
2021/12/17 02:05:12;;;;;;;11.20;6.72;;;128.40;2252.80;;;;;;6162125;23;20477;-91
2021/12/17 02:07:38;;;;;;;10.35;6.97;;;128.40;2252.80;;;;;;6161065;23;20075;-91
2021/12/17 02:12:56;;;;;;;14.07;7.45;;;128.50;2252.80;;;;;;6197588;23;19999;-88
2021/12/17 02:31:59;;;;;;;9.60;6.22;;;128.50;2252.80;;;;;;6187270;23;20431;-90
2021/12/17 02:37:16;;;;;;;12.00;7.00;;;128.40;2252.80;;;;;;6187327;23;20019;-90
2021/12/17 02:40:06;;;;;;;12.73;6.30;;;128.40;2252.80;;;;;;6161174;23;20005;-91
2021/12/17 02:45:36;;;;;;;11.43;6.50;;;128.40;2252.80;;;;;;6187365;23;20019;-91
2021/12/17 02:48:13;;;;;;;9.68;5.00;;;128.50;2252.80;;;;;;6161138;23;20004;-90
2021/12/17 02:50:44;;;;;;;11.18;6.50;;;128.40;2252.80;;;;;;6161002;23;20455;-91
2021/12/17 02:53:11;;;;;;;10.35;5.55;;;128.40;2252.80;;;;;;6161347;23;20021;-90
2021/12/17 02:55:40;;;;;;;8.45;5.63;;;128.40;2252.80;;;;;;6160823;23;20024;-90
2021/12/17 02:58:07;;;;;;;7.07;4.88;;;128.40;2252.80;;;;;;6161037;23;20001;-90
2021/12/17 03:00:34;;;;;;;9.20;4.90;;;128.40;2252.80;;;;;;6161044;23;20001;-91
2021/12/17 03:03:03;;;;;;;7.60;4.47;;;128.40;2252.80;;;;;;6184383;23;19985;-90
2021/12/17 03:05:29;;;;;;;10.50;6.00;;;128.40;2252.80;;;;;;6188562;23;20020;-89
2021/12/17 03:07:56;;;;;;;12.63;7.38;;;128.40;2252.80;;;;;;6188232;23;20005;-90
2021/12/17 03:10:24;;;;;;;13.75;7.88;;;128.40;2252.80;;;;;;6162172;23;20407;-91
2021/12/17 03:12:55;;;;;;;9.35;5.60;;;128.40;2252.80;;;;;;6160858;23;20048;-91
2021/12/17 03:25:53;;;;;;;7.05;3.63;;;128.50;2252.80;;;;;;6197257;23;20004;-90
2021/12/17 03:28:19;;;;;;;7.43;5.25;;;128.50;2252.80;;;;;;6160886;23;20016;-92
2021/12/17 03:30:46;;;;;;;7.47;5.55;;;128.50;2252.80;;;;;;6161007;23;20005;-88
2021/12/17 03:33:12;;;;;;;7.75;4.80;;;128.50;2252.80;;;;;;6160579;23;20083;-91
2021/12/17 03:35:38;;;;;;;7.10;4.60;;;128.50;2252.80;;;;;;6160858;23;20264;-90
2021/12/17 03:38:04;;;;;;;7.07;4.82;;;128.50;2252.80;;;;;;6160867;23;20084;-89
2021/12/17 03:40:32;;;;;;;8.90;4.63;;;128.50;2252.80;;;;;;6160778;23;20005;-89
2021/12/17 03:43:05;;;;;;;6.35;4.10;;;128.60;2252.80;;;;;;6161036;23;20088;-89
2021/12/17 03:45:31;;;;;;;8.68;5.68;;;128.50;2252.80;;;;;;6160821;23;20032;-89
2021/12/17 03:47:57;;;;;;;9.98;5.68;;;128.60;2022.40;;;;;;6160684;23;20004;-90
2021/12/17 03:50:23;;;;;;;7.78;5.00;;;128.50;2201.60;;;;;;6160886;23;20005;-90
2021/12/17 03:52:49;;;;;;;9.60;5.95;;;128.50;2252.80;;;;;;6161089;23;20035;-90
2021/12/17 03:55:15;;;;;;;8.13;5.30;;;128.50;2252.80;;;;;;6162717;23;20020;-90
2021/12/17 03:57:41;;;;;;;11.85;6.93;;;128.50;2252.80;;;;;;6163333;23;20000;-89
2021/12/17 04:00:10;;;;;;;15.23;7.60;;;128.50;2252.80;;;;;;6163532;23;20490;-89
2021/12/17 04:02:36;;;;;;;16.70;9.88;;;128.50;2252.80;;;;;;6163059;23;20378;-89
2021/12/17 04:05:04;;;;;;;11.98;7.22;;;128.60;2252.80;;;;;;6162925;23;19997;-90
2021/12/17 04:07:29;;;;;;;14.90;8.65;;;128.50;2252.80;;;;;;6163030;23;20393;-89
2021/12/17 04:09:55;;;;;;;12.07;7.65;;;128.60;2252.80;;;;;;6162764;23;20004;-89
2021/12/17 04:12:29;;;;;;;12.55;7.80;;;128.70;2252.80;;;;;;6162819;23;20083;-89
2021/12/17 04:14:57;;;;;;;12.93;9.00;;;128.60;2252.80;;;;;;6162918;23;19993;-91
2021/12/17 04:17:25;;;;;;;12.40;8.18;;;128.70;2252.80;;;;;;6162428;23;20416;-89
2021/12/17 04:19:52;;;;;;;10.38;7.53;;;128.70;2252.80;;;;;;6162233;23;20012;-89
2021/12/17 04:22:18;;;;;;;13.27;7.93;;;128.60;2252.80;;;;;;6162504;23;20357;-88
2021/12/17 04:24:44;;;;;;;11.52;7.38;;;128.70;2252.80;;;;;;6162648;23;20029;-89
2021/12/17 04:27:10;;;;;;;11.02;6.75;;;128.70;2252.80;;;;;;6161912;23;19997;-90
2021/12/17 04:29:41;;;;;;;9.80;6.15;;;128.70;2176.00;;;;;;6162307;23;20012;-90
2021/12/17 04:32:07;;;;;;;13.35;7.75;;;128.70;2252.80;;;;;;6162550;23;19993;-90
2021/12/17 04:34:33;;;;;;;15.40;7.72;;;153.70;2252.80;;;;;;6162355;23;20319;-90
2021/12/17 04:36:59;;;;;;;15.52;9.82;;;128.80;2252.80;;;;;;6162352;23;19993;-89
2021/12/17 04:39:26;;;;;;;14.27;9.00;;;128.90;2252.80;;;;;;6162265;23;20415;-90
2021/12/17 04:41:59;;;;;;;8.57;5.18;;;128.80;2252.80;;;;;;6162121;23;20400;-90
2021/12/17 04:44:32;;;;;;;8.60;5.90;;;128.80;2252.80;;;;;;6162155;23;20080;-90
2021/12/17 04:57:52;;;;;;;12.13;8.00;;;128.80;2252.80;;;;;;6188136;23;20012;-90
2021/12/17 05:00:24;;;;;;;9.75;6.20;;;128.80;2252.80;;;;;;6162008;23;20068;-89
2021/12/17 05:02:54;;;;;;;8.85;6.10;;;128.80;2252.80;;;;;;6161998;23;20433;-89
2021/12/17 05:05:22;;;;;;;9.75;6.80;;;128.90;2252.80;;;;;;6161784;23;20063;-90
2021/12/17 05:07:54;;;;;;;18.00;11.70;;;128.90;2252.80;;;;;;6162158;23;20009;-89
2021/12/17 05:10:30;;;;;;;15.10;11.05;;;128.90;2252.80;;;;;;6162310;23;20288;-89
2021/12/17 05:18:27;;;;;;;17.75;11.82;;;128.90;2252.80;;;;;;6187971;23;20135;-88
2021/12/17 05:21:04;;;;;;;21.45;14.00;;;128.90;2252.80;;;;;;6161826;23;20009;-90
2021/12/17 05:23:34;;;;;;;17.55;13.02;;;128.90;2252.80;;;;;;6161779;23;20029;-90
2021/12/17 05:26:04;;;;;;;12.20;8.50;;;128.90;2252.80;;;;;;6161956;23;20051;-89
2021/12/17 05:28:30;;;;;;;16.45;11.95;;;153.60;2252.80;;;;;;6161804;23;20434;-89
2021/12/17 05:30:56;;;;;;;17.60;12.55;;;153.60;2252.80;;;;;;6161598;23;20005;-89
2021/12/17 05:33:24;;;;;;;11.63;7.95;;;153.60;2252.80;;;;;;6161671;23;19997;-90
2021/12/17 05:35:51;;;;;;;14.77;8.63;;;128.90;2252.80;;;;;;6161628;23;20024;-90
2021/12/17 05:38:19;;;;;;;12.32;7.22;;;153.60;2252.80;;;;;;6161586;23;19997;-90
2021/12/17 05:40:46;;;;;;;12.35;8.18;;;153.60;2252.80;;;;;;6161763;23;20052;-90
2021/12/17 05:43:13;;;;;;;11.00;7.35;;;128.90;2252.80;;;;;;6161596;23;19993;-89
2021/12/17 05:48:20;;;;;;;8.82;5.53;;;128.90;2252.80;;;;;;6197955;23;20004;-89
2021/12/17 05:50:49;;;;;;;17.23;9.25;;;153.60;2252.80;;;;;;6161608;23;20005;-89
2021/12/17 05:53:15;;;;;;;16.52;10.27;;;153.70;2252.80;;;;;;6161475;23;19997;-90
2021/12/17 05:55:41;;;;;;;18.10;10.70;;;128.90;2252.80;;;;;;6161305;23;20095;-89
2021/12/17 05:58:08;;;;;;;19.58;10.63;;;153.70;2252.80;;;;;;6161419;23;20284;-90
2021/12/17 06:00:35;;;;;;;20.48;12.02;;;153.70;2252.80;;;;;;6161220;23;20068;-90
2021/12/17 06:03:02;;;;;;;15.48;9.63;;;153.70;2252.80;;;;;;6161535;23;20000;-90
2021/12/17 06:05:29;;;;;;;27.92;14.05;;;153.70;2252.80;;;;;;6161370;23;20001;-89
2021/12/17 06:07:55;;;;;;;24.63;15.10;;;153.80;2252.80;;;;;;6161237;23;20047;-89
2021/12/17 06:10:21;;;;;;;36.58;23.08;;;153.80;2252.80;;;;;;6161488;23;20004;-89
2021/12/17 06:12:47;;;;;;;21.67;12.90;;;153.80;2252.80;;;;;;6161408;23;20001;-89
2021/12/17 06:15:15;;;;;;;26.25;18.25;;;153.80;2252.80;;;;;;6161510;23;20311;-88
2021/12/17 06:17:42;;;;;;;22.15;12.50;;;153.80;2252.80;;;;;;6161021;23;20023;-89
2021/12/17 06:20:09;;;;;;;16.70;11.35;;;153.80;2252.80;;;;;;6161402;23;20008;-89
2021/12/17 06:22:36;;;;;;;19.40;12.02;;;153.80;2252.80;;;;;;6161263;23;20088;-89
2021/12/17 06:25:03;;;;;;;15.30;9.48;;;153.80;2252.80;;;;;;6187367;23;20276;-89
2021/12/17 06:27:28;;;;;;;18.02;12.23;;;153.80;2252.80;;;;;;6161405;23;20001;-89
2021/12/17 06:29:55;;;;;;;13.85;9.55;;;153.80;2252.80;;;;;;6161278;23;20052;-89
2021/12/17 06:32:21;;;;;;;14.18;9.60;;;153.80;2252.80;;;;;;6161456;23;20088;-89
2021/12/17 06:34:48;;;;;;;13.70;9.43;;;153.80;2252.80;;;;;;6161315;23;19997;-89
2021/12/17 06:37:17;;;;;;;15.07;10.40;;;153.90;2252.80;;;;;;6161379;23;19993;-89
2021/12/17 06:39:44;;;;;;;14.73;10.20;;;153.90;2252.80;;;;;;6161132;23;20064;-90
2021/12/17 06:42:10;;;;;;;23.52;17.15;;;153.90;2252.80;;;;;;6161160;23;20001;-89
2021/12/17 06:44:38;;;;;;;24.48;15.13;;;153.80;2252.80;;;;;;6161145;23;20029;-89
2021/12/17 06:47:54;;;;;;;24.33;14.32;;;154.00;2252.80;;;;;;6161362;23;20334;-89
2021/12/17 07:01:17;;;;;;;21.13;14.18;;;154.00;2252.80;;;;;;6197196;23;20005;-89
2021/12/17 07:09:48;;;;;;;17.25;13.05;;;154.00;2252.80;;;;;;6187542;23;20339;-89
2021/12/17 07:17:40;;;;;;;41.67;21.48;;;154.10;2252.80;;;;;;6187163;23;20009;-89
2021/12/17 07:28:11;;;;;;;24.92;14.88;;;154.10;2252.80;;;;;;6187083;23;20016;-90
2021/12/17 07:33:20;;;;;;;15.13;11.35;;;154.10;2252.80;;;;;;6198985;23;20415;-89
2021/12/17 07:35:55;;;;;;;14.00;10.02;;;154.20;2252.80;;;;;;6163151;23;20077;-90
2021/12/17 07:38:47;;;;;;;18.92;13.13;;;154.20;2252.80;;;;;;6162820;23;19993;-90
2021/12/17 07:41:13;;;;;;;19.95;14.10;;;154.20;2252.80;;;;;;6163085;23;20088;-87
2021/12/17 07:43:40;;;;;;;17.92;12.50;;;154.20;2252.80;;;;;;6162847;23;20442;-89
2021/12/17 07:46:11;;;;;;;21.42;14.20;;;154.30;2252.80;;;;;;6162648;23;19993;-89
2021/12/17 07:48:37;;;;;;;26.95;17.67;;;154.30;2252.80;;;;;;6162834;23;19997;-89
2021/12/17 07:51:06;;;;;;;33.25;23.75;;;154.30;2252.80;;;;;;6162832;23;20001;-89
2021/12/17 07:53:34;;;;;;;61.63;40.22;;;154.30;2252.80;;;;;;6162613;23;19997;-89
2021/12/17 07:56:02;;;;;;;54.85;32.92;;;154.40;2252.80;;;;;;6162781;23;20035;-88
2021/12/17 07:58:29;;;;;;;48.70;30.13;;;154.30;2252.80;;;;;;6164323;23;20001;-89
2021/12/17 08:00:56;;;;;;;22.77;15.27;;;154.40;2252.80;;;;;;6164353;23;20016;-90
2021/12/17 08:03:21;;;;;;;20.05;14.80;;;154.40;2252.80;;;;;;6162914;23;20000;-90
2021/12/17 08:05:48;;;;;;;11.02;7.45;;;154.50;2252.80;;;;;;6162562;23;20001;-89
2021/12/17 08:08:14;;;;;;;16.65;11.07;;;154.50;2252.80;;;;;;6162683;23;20303;-89
2021/12/17 08:10:40;;;;;;;16.48;11.40;;;179.20;2252.80;;;;;;6162577;23;20008;-89
2021/12/17 08:13:12;;;;;;;19.85;15.55;;;179.20;2252.80;;;;;;6188976;23;20003;-89
2021/12/17 08:15:45;;;;;;;9.02;6.40;;;179.20;2252.80;;;;;;6162578;23;20008;-89
2021/12/17 08:26:38;;;;;;;13.98;11.10;;;179.40;2252.80;;;;;;6198747;23;20039;-90
2021/12/17 08:31:33;;;;;;;12.63;8.77;;;179.40;2252.80;;;;;;6188912;23;19997;-90
2021/12/17 08:34:00;;;;;;;12.70;8.70;;;179.40;2252.80;;;;;;6162510;23;19997;-89
2021/12/17 08:36:25;;;;;;;12.48;9.32;;;179.50;2252.80;;;;;;6162322;23;19997;-89
2021/12/17 08:38:51;;;;;;;10.77;7.80;;;179.50;2252.80;;;;;;6162238;23;20080;-89
2021/12/17 08:41:18;;;;;;;11.93;8.15;;;179.70;2252.80;;;;;;6161693;23;20001;-88
2021/12/17 08:43:44;;;;;;;11.57;8.38;;;179.70;2252.80;;;;;;6162498;23;20001;-84
2021/12/17 08:46:10;;;;;;;12.30;9.15;;;179.70;2252.80;;;;;;6162084;23;19997;-89
2021/12/17 08:48:36;;;;;;;10.27;6.95;;;179.70;2252.80;;;;;;6162537;23;19994;-89
2021/12/17 08:51:03;;;;;;;11.27;5.40;;;179.70;2252.80;;;;;;6162331;23;20032;-89
2021/12/17 08:53:29;;;;;;;9.95;7.20;;;179.70;2252.80;;;;;;6162597;23;20354;-89
2021/12/17 08:55:55;;;;;;;8.63;6.97;;;179.80;2252.80;;;;;;6161987;23;20009;-90
2021/12/17 08:58:21;;;;;;;11.60;7.85;;;179.80;2252.80;;;;;;6179172;23;19989;-90
2021/12/17 09:00:47;;;;;;;12.88;7.18;;;179.80;2252.80;;;;;;6189515;23;20005;-88
2021/12/17 09:03:13;;;;;;;10.65;7.40;;;179.80;2252.80;;;;;;6173943;23;20084;-88
2021/12/17 09:05:41;;;;;;;6.30;4.85;;;179.90;2252.80;;;;;;6162179;23;20088;-88
2021/12/17 09:08:09;;;;;;;7.93;5.95;;;179.70;2252.80;;;;;;6162599;23;20047;-89
2021/12/17 09:10:36;;;;;;;7.38;5.32;;;179.80;2252.80;;;;;;6162282;23;20139;-88
2021/12/17 09:13:03;;;;;;;10.85;6.70;;;179.90;2252.80;;;;;;6162110;23;19993;-89
2021/12/17 09:15:29;;;;;;;9.60;7.07;;;179.90;2252.80;;;;;;6161970;23;20088;-89
2021/12/17 09:17:55;;;;;;;9.18;6.88;;;179.70;2252.80;;;;;;6162195;23;20000;-89
2021/12/17 09:20:22;;;;;;;15.32;8.20;;;180.00;2252.80;;;;;;6162286;23;20087;-89
2021/12/17 09:22:47;;;;;;;9.02;7.03;;;179.90;2252.80;;;;;;6162128;23;20001;-89
2021/12/17 09:25:15;;;;;;;8.50;5.53;;;180.10;2252.80;;;;;;6162005;23;20434;-90
2021/12/17 09:27:42;;;;;;;10.57;6.45;;;180.10;2252.80;;;;;;6162224;23;20004;-87
2021/12/17 09:30:14;;;;;;;6.65;4.97;;;180.10;2252.80;;;;;;6161967;23;20005;-87
2021/12/17 09:32:40;;;;;;;8.68;6.45;;;180.10;2252.80;;;;;;6162122;23;20005;-88
2021/12/17 09:35:11;;;;;;;16.75;12.05;;;204.80;2252.80;;;;;;6161628;23;19997;-87
2021/12/17 09:37:37;;;;;;;6.53;4.72;;;180.10;2252.80;;;;;;6161597;23;20040;-87
2021/12/17 09:40:06;;;;;;;9.95;6.43;;;180.10;2252.80;;;;;;6161295;23;20009;-82
2021/12/17 09:42:35;;;;;;;18.00;14.63;;;180.00;2252.80;;;;;;6160816;23;20439;-89
2021/12/17 09:45:03;;;;;;;15.57;10.90;;;180.10;2252.80;;;;;;6161211;23;19997;-84
2021/12/17 09:47:29;;;;;;;9.85;6.22;;;204.80;2252.80;;;;;;6161002;23;20005;-87
2021/12/17 09:49:56;;;;;;;6.47;4.53;;;204.90;2252.80;;;;;;6161810;23;20036;-87
2021/12/17 09:52:24;;;;;;;9.65;6.03;;;205.00;2252.80;;;;;;6187208;23;19997;-84
2021/12/17 09:54:50;;;;;;;10.15;5.88;;;205.20;2252.80;;;;;;6160823;23;20015;-90
2021/12/17 09:57:19;;;;;;;13.57;8.95;;;205.20;2252.80;;;;;;6161346;23;19993;-86
2021/12/17 09:59:45;;;;;;;14.65;10.10;;;205.20;2252.80;;;;;;6160906;23;20016;-89
2021/12/17 10:02:11;;;;;;;14.43;7.97;;;205.10;2252.80;;;;;;6161430;23;20001;-86
2021/12/17 10:04:42;;;;;;;10.10;6.60;;;205.20;2252.80;;;;;;6161133;23;20001;-85
2021/12/17 10:07:24;;;;;;;9.02;5.68;;;205.30;2252.80;;;;;;6160509;23;20000;-84
2021/12/17 10:09:55;;;;;;;10.47;6.70;;;205.20;2252.80;;;;;;6161207;23;20000;-88
2021/12/17 10:12:29;;;;;;;10.00;6.63;;;205.20;2252.80;;;;;;6160462;23;20080;-76
2021/12/17 10:15:17;;;;;;;13.20;9.50;;;205.30;2252.80;;;;;;6186610;23;20080;-79
2021/12/17 10:17:51;;;;;;;32.78;18.52;;;205.30;2252.80;;;;;;6160276;23;19993;-82
2021/12/17 10:20:16;;;;;;;13.32;10.30;;;205.40;2252.80;;;;;;6160297;23;20389;-82
2021/12/17 10:22:53;;;;;;;17.73;11.98;;;205.40;2252.80;;;;;;6160216;23;20043;-82
2021/12/17 10:25:20;;;;;;;30.08;20.02;;;205.60;2252.80;;;;;;6160256;23;19997;-80
2021/12/17 10:27:46;;;;;;;42.58;26.63;;;205.50;2252.80;;;;;;6186524;23;20068;-81
2021/12/17 10:30:18;;;;;;;33.58;23.83;;;205.40;2252.80;;;;;;6160468;23;20355;-82
2021/12/17 10:32:47;;;;;;;14.70;11.23;;;205.10;2252.80;;;;;;6160603;23;19997;-80
2021/12/17 10:35:19;;;;;;;13.18;10.07;;;205.00;2252.80;;;;;;6186226;23;20404;-79
2021/12/17 10:37:52;;;;;;;32.33;20.33;;;204.80;2252.80;;;;;;6160496;23;20358;-81
2021/12/17 10:40:34;;;;;;;26.52;17.02;;;204.80;2252.80;;;;;;6186480;23;20084;-87
2021/12/17 10:43:07;;;;;;;26.05;16.38;;;180.10;2252.80;;;;;;6187098;23;20342;-85
2021/12/17 10:45:43;;;;;;;17.23;11.27;;;180.00;2252.80;;;;;;6160770;23;20001;-85
2021/12/17 10:51:13;;;;;;;16.13;11.80;;;180.00;2252.80;;;;;;6186134;23;20027;-78
2021/12/17 10:53:45;;;;;;;17.23;12.38;;;179.90;2252.80;;;;;;6160076;23;20060;-80
2021/12/17 10:56:16;;;;;;;36.80;21.10;;;179.90;2252.80;;;;;;6159611;23;20055;-78
2021/12/17 10:59:07;;;;;;;25.73;17.67;;;179.90;2252.80;;;;;;6160082;23;20001;-78
2021/12/17 11:01:45;;;;;;;24.25;17.92;;;180.00;2252.80;;;;;;6159591;23;20419;-80
2021/12/17 11:04:21;;;;;;;29.83;21.33;;;180.00;2252.80;;;;;;6159655;23;20311;-77
2021/12/17 11:06:52;;;;;;;31.17;22.63;;;180.10;2252.80;;;;;;6186315;23;19993;-84
2021/12/17 11:09:47;;;;;;;23.35;17.60;;;180.10;2252.80;;;;;;6186075;23;20125;-84
2021/12/17 11:12:29;;;;;;;23.73;17.90;;;180.10;2252.80;;;;;;6160038;23;20001;-81
2021/12/17 11:15:13;;;;;;;23.30;17.65;;;180.10;2252.80;;;;;;6160384;23;20419;-83
2021/12/17 11:17:41;;;;;;;24.92;17.45;;;180.10;2252.80;;;;;;6160127;23;20008;-82
2021/12/17 11:20:11;;;;;;;25.70;17.35;;;180.10;2252.80;;;;;;6186370;23;20071;-84
2021/12/17 11:22:39;;;;;;;27.38;19.55;;;180.00;2252.80;;;;;;6160180;23;20000;-85
2021/12/17 11:25:06;;;;;;;19.92;13.10;;;179.90;2252.80;;;;;;6160139;23;19997;-84
2021/12/17 11:27:32;;;;;;;18.75;13.18;;;179.80;2252.80;;;;;;6160120;23;20048;-84
2021/12/17 11:30:00;;;;;;;12.82;9.68;;;179.30;2252.80;;;;;;6159770;23;20433;-84
2021/12/17 11:32:26;;;;;;;78.13;39.95;;;179.50;2252.80;;;;;;6160118;23;19993;-82
2021/12/17 11:34:53;;;;;;;22.40;16.42;;;179.40;2252.80;;;;;;6160391;23;20051;-85
2021/12/17 11:37:20;;;;;;;20.77;15.48;;;179.30;2252.80;;;;;;6159872;23;20053;-85
2021/12/17 11:39:59;;;;;;;19.17;11.65;;;154.50;2252.80;;;;;;6186513;23;20067;-84
2021/12/17 11:42:43;;;;;;;20.13;13.68;;;154.50;2252.80;;;;;;6186440;23;20040;-81
2021/12/17 11:45:25;;;;;;;20.67;13.48;;;154.50;2252.80;;;;;;6159901;23;20394;-83
2021/12/17 11:48:10;;;;;;;19.92;13.85;;;154.40;2252.80;;;;;;6160723;23;20474;-86
2021/12/17 11:50:36;;;;;;;37.90;22.42;;;154.50;2252.80;;;;;;6160333;23;20028;-86
2021/12/17 11:53:17;;;;;;;27.67;18.08;;;154.50;2252.80;;;;;;6186351;23;19990;-87
2021/12/17 11:55:46;;;;;;;19.13;13.02;;;154.40;2252.80;;;;;;6159768;23;20431;-86
2021/12/17 11:58:15;;;;;;;21.63;16.70;;;154.30;2252.80;;;;;;6159982;23;19993;-87
2021/12/17 12:00:41;;;;;;;24.42;15.15;;;154.20;2252.80;;;;;;6160036;23;20104;-86
2021/12/17 12:03:16;;;;;;;21.65;14.27;;;154.40;2252.80;;;;;;6159675;23;20036;-86
2021/12/17 12:05:44;;;;;;;22.00;16.98;;;154.50;2252.80;;;;;;6159867;23;20427;-88
2021/12/17 12:08:37;;;;;;;27.13;17.58;;;154.50;2252.80;;;;;;6160234;23;20407;-87
2021/12/17 12:11:13;;;;;;;16.42;10.38;;;154.50;2252.80;;;;;;6160528;23;20005;-87
2021/12/17 12:13:45;;;;;;;16.48;13.77;;;154.50;2252.80;;;;;;6160478;23;20415;-83
2021/12/17 12:16:19;;;;;;;29.05;15.63;;;179.20;2252.80;;;;;;6161075;23;20052;-87
2021/12/17 12:18:59;;;;;;;15.27;10.68;;;154.50;2252.80;;;;;;6162317;23;20024;-85
2021/12/17 12:21:32;;;;;;;18.05;12.35;;;154.50;2252.80;;;;;;6162000;23;20012;-89
2021/12/17 12:24:18;;;;;;;26.65;17.85;;;154.40;2252.80;;;;;;6161748;23;20052;-80
2021/12/17 12:26:50;;;;;;;18.75;13.18;;;154.40;2252.80;;;;;;6161447;23;20001;-83
2021/12/17 12:29:24;;;;;;;15.65;10.95;;;154.40;2252.80;;;;;;6187618;23;19989;-83
2021/12/17 12:31:52;;;;;;;8.52;7.18;;;154.40;2252.80;;;;;;6161299;23;20004;-81
2021/12/17 12:34:37;;;;;;;15.93;13.40;;;154.40;2252.80;;;;;;6160907;23;20419;-83
2021/12/17 12:37:12;;;;;;;11.30;9.02;;;154.50;2252.80;;;;;;6161595;23;19997;-82
2021/12/17 12:39:49;;;;;;;14.77;10.43;;;179.20;2252.80;;;;;;6162002;23;20059;-91
2021/12/17 12:42:24;;;;;;;10.38;7.38;;;179.20;2252.80;;;;;;6162562;23;19993;-80
2021/12/17 12:44:51;;;;;;;13.80;10.07;;;179.30;2252.80;;;;;;6162117;23;20008;-91
2021/12/17 12:47:20;;;;;;;15.90;10.32;;;179.20;2252.80;;;;;;6161558;23;20449;-82
2021/12/17 12:50:03;;;;;;;26.40;17.25;;;179.20;2252.80;;;;;;6161203;23;20004;-80
2021/12/17 12:52:43;;;;;;;16.80;11.13;;;179.30;2252.80;;;;;;6188192;23;20001;-90
2021/12/17 12:55:20;;;;;;;19.38;16.50;;;179.20;2252.80;;;;;;6161886;23;20009;-90
2021/12/17 12:57:53;;;;;;;17.42;12.82;;;154.50;2252.80;;;;;;6162314;23;20478;-90
2021/12/17 13:00:45;;;;;;;18.10;13.13;;;154.50;2252.80;;;;;;6188138;23;20005;-90
2021/12/17 13:03:23;;;;;;;14.93;11.63;;;154.50;2252.80;;;;;;6146486;23;19994;-91
2021/12/17 13:05:49;;;;;;;18.45;12.63;;;154.50;2252.80;;;;;;6161705;23;20080;-91
2021/12/17 13:08:18;;;;;;;16.05;12.02;;;154.50;2252.80;;;;;;6160755;23;20020;-89
2021/12/17 13:10:55;;;;;;;17.75;11.45;;;154.40;2252.80;;;;;;6161188;23;20001;-90
2021/12/17 13:24:06;;;;;;;25.65;16.40;;;154.20;2252.80;;;;;;6198158;23;20004;-89
2021/12/17 13:26:32;;;;;;;35.05;27.17;;;154.30;2252.80;;;;;;6161784;23;19997;-90
2021/12/17 13:29:06;;;;;;;24.92;17.80;;;154.20;2252.80;;;;;;6161615;23;20001;-89
2021/12/17 13:31:53;;;;;;;28.90;19.48;;;154.20;2252.80;;;;;;6161984;23;20087;-90
2021/12/17 13:34:24;;;;;;;26.65;19.38;;;154.20;2252.80;;;;;;6162078;23;20001;-90
2021/12/17 13:37:10;;;;;;;27.27;18.48;;;154.10;2252.80;;;;;;6187805;23;19997;-90
2021/12/17 13:39:39;;;;;;;24.67;16.48;;;154.10;2252.80;;;;;;6161857;23;20079;-90
2021/12/17 13:42:07;;;;;;;22.38;14.13;;;154.00;2252.80;;;;;;6162273;23;20001;-89
2021/12/17 13:44:41;;;;;;;33.03;22.08;;;153.90;2252.80;;;;;;6162099;23;20372;-90
2021/12/17 13:47:17;;;;;;;24.13;18.30;;;154.30;2252.80;;;;;;6162174;23;20004;-90
2021/12/17 13:49:51;;;;;;;18.60;12.88;;;153.90;2252.80;;;;;;6161657;23;19997;-90
2021/12/17 13:52:22;;;;;;;19.80;14.50;;;153.80;2252.80;;;;;;6162093;23;20015;-92
2021/12/17 13:54:49;;;;;;;24.40;16.00;;;153.80;2252.80;;;;;;6161634;23;20091;-90
2021/12/17 13:57:21;;;;;;;26.05;17.13;;;153.80;2252.80;;;;;;6161299;23;20008;-89
2021/12/17 13:59:47;;;;;;;17.67;12.43;;;153.80;2252.80;;;;;;6161573;23;20008;-89
2021/12/17 14:02:20;;;;;;;21.50;15.40;;;153.70;2252.80;;;;;;6187624;23;20297;-90
2021/12/17 14:05:15;;;;;;;19.90;15.20;;;153.70;2252.80;;;;;;6161143;23;20047;-90
2021/12/17 14:07:41;;;;;;;21.13;15.25;;;153.60;2252.80;;;;;;6161395;23;20485;-88
2021/12/17 14:10:14;;;;;;;21.88;13.73;;;128.90;2252.80;;;;;;6187266;23;20023;-88
2021/12/17 14:12:42;;;;;;;32.90;23.75;;;128.90;2252.80;;;;;;6161722;23;20004;-91
2021/12/17 14:15:16;;;;;;;33.95;22.77;;;128.90;2252.80;;;;;;6161025;23;20005;-90
2021/12/17 14:17:47;;;;;;;36.85;24.92;;;128.90;2252.80;;;;;;6161513;23;20000;-89
2021/12/17 14:20:18;;;;;;;24.88;17.25;;;128.90;2252.80;;;;;;6161655;23;20419;-92
2021/12/17 14:22:46;;;;;;;28.20;18.63;;;128.90;2252.80;;;;;;6161436;23;19993;-89
2021/12/17 14:25:38;;;;;;;24.05;17.95;;;128.80;2252.80;;;;;;6160814;23;19997;-89
2021/12/17 14:28:16;;;;;;;29.13;21.13;;;128.80;2252.80;;;;;;6166681;23;20060;-90
2021/12/17 14:30:53;;;;;;;16.85;14.38;;;128.70;2252.80;;;;;;6177038;23;20008;-89
2021/12/17 14:33:21;;;;;;;20.65;14.85;;;128.80;2252.80;;;;;;6172391;23;20008;-90
2021/12/17 14:36:08;;;;;;;21.48;16.35;;;128.80;2252.80;;;;;;6161332;23;20029;-89
2021/12/17 14:38:39;;;;;;;20.25;15.30;;;128.80;2252.80;;;;;;6161292;23;20076;-89
2021/12/17 14:41:07;;;;;;;35.35;22.65;;;128.90;2252.80;;;;;;6161006;23;20095;-88
2021/12/17 14:43:50;;;;;;;19.55;13.05;;;128.90;2252.80;;;;;;6160892;23;20001;-89
2021/12/17 14:46:27;;;;;;;29.70;21.27;;;128.90;2252.80;;;;;;6161326;23;19993;-90
2021/12/17 15:00:59;;;;;;;26.98;17.65;;;128.90;2252.80;;;;;;6196868;23;20012;-90
2021/12/17 15:03:24;;;;;;;16.00;10.35;;;128.90;2252.80;;;;;;6181168;23;19999;-90
2021/12/17 15:05:51;;;;;;;13.82;9.65;;;153.60;2252.80;;;;;;6161107;23;20059;-87
2021/12/17 15:08:17;;;;;;;24.30;17.23;;;153.70;2252.80;;;;;;6160916;23;19997;-90
2021/12/17 15:10:44;;;;;;;84.95;47.90;;;153.60;2252.80;;;;;;6160995;23;20048;-89
2021/12/17 15:13:10;;;;;;;28.40;18.33;;;153.60;2252.80;;;;;;6160837;23;20485;-89
2021/12/17 15:15:39;;;;;;;41.95;24.55;;;153.60;2252.80;;;;;;6160926;23;19993;-90
2021/12/17 15:18:10;;;;;;;26.83;17.20;;;153.60;2252.80;;;;;;6160728;23;20004;-90
2021/12/17 15:20:36;;;;;;;21.40;16.45;;;153.60;2252.80;;;;;;6160980;23;20008;-91
2021/12/17 15:23:04;;;;;;;21.63;11.82;;;128.90;2252.80;;;;;;6160356;23;19997;-90
2021/12/17 15:25:30;;;;;;;14.55;11.10;;;128.90;2252.80;;;;;;6160618;23;20054;-89